sensor_id;sensor_type;location;lat;lon;timestamp;pressure;altitude;pressure_sealevel;temperature;humidity
76753;BME280;65687;51.308;16.916;2023-12-07T00:04:15;99793.20;;;-1.11;94.72
76753;BME280;65687;51.308;16.916;2023-12-07T00:09:16;99799.36;;;-1.15;94.66
76753;BME280;65687;51.308;16.916;2023-12-07T00:14:18;99801.23;;;-1.17;94.52
76753;BME280;65687;51.308;16.916;2023-12-07T00:19:19;99804.05;;;-1.18;94.57
76753;BME280;65687;51.308;16.916;2023-12-07T00:24:21;99811.22;;;-1.18;94.84
76753;BME280;65687;51.308;16.916;2023-12-07T00:29:22;99818.48;;;-1.21;94.62
76753;BME280;65687;51.308;16.916;2023-12-07T00:34:24;99815.55;;;-1.24;94.53
76753;BME280;65687;51.308;16.916;2023-12-07T00:39:25;99816.14;;;-1.23;94.74
76753;BME280;65687;51.308;16.916;2023-12-07T00:44:27;99820.10;;;-1.20;94.52
76753;BME280;65687;51.308;16.916;2023-12-07T00:49:29;99821.48;;;-1.24;94.45
76753;BME280;65687;51.308;16.916;2023-12-07T00:54:30;99823.48;;;-1.31;94.33
76753;BME280;65687;51.308;16.916;2023-12-07T00:59:32;99820.42;;;-1.33;94.33
76753;BME280;65687;51.308;16.916;2023-12-07T01:04:37;99829.29;;;-1.33;94.16
76753;BME280;65687;51.308;16.916;2023-12-07T01:09:39;99835.17;;;-1.32;94.74
76753;BME280;65687;51.308;16.916;2023-12-07T01:14:41;99834.20;;;-1.33;94.28
76753;BME280;65687;51.308;16.916;2023-12-07T01:19:42;99835.43;;;-1.36;94.23
76753;BME280;65687;51.308;16.916;2023-12-07T01:24:44;99842.73;;;-1.40;94.43
76753;BME280;65687;51.308;16.916;2023-12-07T01:29:45;99845.05;;;-1.41;94.41
76753;BME280;65687;51.308;16.916;2023-12-07T01:34:47;99847.29;;;-1.40;94.59
76753;BME280;65687;51.308;16.916;2023-12-07T01:39:49;99849.49;;;-1.38;94.57
76753;BME280;65687;51.308;16.916;2023-12-07T01:44:50;99854.33;;;-1.43;94.53
76753;BME280;65687;51.308;16.916;2023-12-07T01:49:52;99855.18;;;-1.45;95.01
76753;BME280;65687;51.308;16.916;2023-12-07T01:54:55;99858.05;;;-1.52;94.98
76753;BME280;65687;51.308;16.916;2023-12-07T01:59:57;99862.85;;;-1.54;95.15
76753;BME280;65687;51.308;16.916;2023-12-07T02:04:58;99870.98;;;-1.51;94.92
76753;BME280;65687;51.308;16.916;2023-12-07T02:10:00;99866.11;;;-1.51;94.94
76753;BME280;65687;51.308;16.916;2023-12-07T02:15:02;99869.09;;;-1.48;94.87
76753;BME280;65687;51.308;16.916;2023-12-07T02:20:16;99873.14;;;-1.46;94.91
76753;BME280;65687;51.308;16.916;2023-12-07T02:25:24;99875.39;;;-1.45;95.14
76753;BME280;65687;51.308;16.916;2023-12-07T02:30:27;99883.18;;;-1.45;94.63
76753;BME280;65687;51.308;16.916;2023-12-07T02:35:29;99888.33;;;-1.44;95.19
76753;BME280;65687;51.308;16.916;2023-12-07T02:40:31;99889.14;;;-1.42;94.60
76753;BME280;65687;51.308;16.916;2023-12-07T02:45:33;99893.55;;;-1.44;94.86
76753;BME280;65687;51.308;16.916;2023-12-07T02:50:35;99891.16;;;-1.45;94.86
76753;BME280;65687;51.308;16.916;2023-12-07T02:55:36;99887.36;;;-1.45;94.64
76753;BME280;65687;51.308;16.916;2023-12-07T03:00:38;99891.05;;;-1.42;94.66
76753;BME280;65687;51.308;16.916;2023-12-07T03:05:39;99892.98;;;-1.39;94.76
76753;BME280;65687;51.308;16.916;2023-12-07T03:10:41;99897.91;;;-1.38;94.56
76753;BME280;65687;51.308;16.916;2023-12-07T03:15:42;99900.43;;;-1.37;94.86
76753;BME280;65687;51.308;16.916;2023-12-07T03:20:44;99899.27;;;-1.38;94.85
76753;BME280;65687;51.308;16.916;2023-12-07T03:25:46;99900.67;;;-1.37;94.82
76753;BME280;65687;51.308;16.916;2023-12-07T03:30:47;99904.45;;;-1.37;95.18
76753;BME280;65687;51.308;16.916;2023-12-07T03:35:49;99909.80;;;-1.37;94.88
76753;BME280;65687;51.308;16.916;2023-12-07T03:40:51;99919.36;;;-1.36;95.01
76753;BME280;65687;51.308;16.916;2023-12-07T03:45:52;99927.77;;;-1.38;94.82
76753;BME280;65687;51.308;16.916;2023-12-07T03:50:54;99934.40;;;-1.38;94.88
76753;BME280;65687;51.308;16.916;2023-12-07T03:55:55;99939.38;;;-1.39;94.97
76753;BME280;65687;51.308;16.916;2023-12-07T04:00:57;99943.81;;;-1.38;95.21
76753;BME280;65687;51.308;16.916;2023-12-07T04:05:59;99947.40;;;-1.37;95.19
76753;BME280;65687;51.308;16.916;2023-12-07T04:11:00;99947.90;;;-1.34;94.75
76753;BME280;65687;51.308;16.916;2023-12-07T04:16:02;99946.62;;;-1.33;95.09
76753;BME280;65687;51.308;16.916;2023-12-07T04:21:04;99940.20;;;-1.31;95.05
76753;BME280;65687;51.308;16.916;2023-12-07T04:26:09;99943.59;;;-1.31;95.05
76753;BME280;65687;51.308;16.916;2023-12-07T04:31:10;99949.34;;;-1.32;95.00
76753;BME280;65687;51.308;16.916;2023-12-07T04:36:12;99947.97;;;-1.29;95.13
76753;BME280;65687;51.308;16.916;2023-12-07T04:41:13;99954.61;;;-1.28;95.30
76753;BME280;65687;51.308;16.916;2023-12-07T04:46:15;99956.85;;;-1.27;95.00
76753;BME280;65687;51.308;16.916;2023-12-07T04:51:17;99962.73;;;-1.25;95.23
76753;BME280;65687;51.308;16.916;2023-12-07T04:56:18;99968.39;;;-1.26;95.51
76753;BME280;65687;51.308;16.916;2023-12-07T05:01:20;99967.67;;;-1.26;95.18
76753;BME280;65687;51.308;16.916;2023-12-07T05:06:21;99972.54;;;-1.29;95.19
76753;BME280;65687;51.308;16.916;2023-12-07T05:11:23;99973.42;;;-1.29;95.32
76753;BME280;65687;51.308;16.916;2023-12-07T05:16:25;99981.81;;;-1.29;95.41
76753;BME280;65687;51.308;16.916;2023-12-07T05:21:26;99982.91;;;-1.28;95.48
76753;BME280;65687;51.308;16.916;2023-12-07T05:26:28;99984.68;;;-1.27;95.51
76753;BME280;65687;51.308;16.916;2023-12-07T05:31:30;99993.10;;;-1.27;95.49
76753;BME280;65687;51.308;16.916;2023-12-07T05:36:32;99999.52;;;-1.29;95.62
76753;BME280;65687;51.308;16.916;2023-12-07T05:41:34;100002.11;;;-1.31;95.59
76753;BME280;65687;51.308;16.916;2023-12-07T05:46:35;100003.88;;;-1.31;95.64
76753;BME280;65687;51.308;16.916;2023-12-07T05:51:37;100012.55;;;-1.33;95.96
76753;BME280;65687;51.308;16.916;2023-12-07T05:56:39;100014.46;;;-1.33;95.65
76753;BME280;65687;51.308;16.916;2023-12-07T06:01:41;100020.21;;;-1.35;95.95
76753;BME280;65687;51.308;16.916;2023-12-07T06:06:44;100023.62;;;-1.37;96.05
76753;BME280;65687;51.308;16.916;2023-12-07T06:11:46;100032.25;;;-1.38;96.30
76753;BME280;65687;51.308;16.916;2023-12-07T06:16:47;100037.34;;;-1.39;96.33
76753;BME280;65687;51.308;16.916;2023-12-07T06:21:49;100038.23;;;-1.41;96.59
76753;BME280;65687;51.308;16.916;2023-12-07T06:26:51;100042.16;;;-1.40;97.01
76753;BME280;65687;51.308;16.916;2023-12-07T06:31:53;100046.41;;;-1.37;96.88
76753;BME280;65687;51.308;16.916;2023-12-07T06:36:54;100051.27;;;-1.36;96.94
76753;BME280;65687;51.308;16.916;2023-12-07T06:41:56;100055.48;;;-1.32;97.30
76753;BME280;65687;51.308;16.916;2023-12-07T06:46:58;100059.13;;;-1.28;97.92
76753;BME280;65687;51.308;16.916;2023-12-07T06:51:59;100064.15;;;-1.25;97.67
76753;BME280;65687;51.308;16.916;2023-12-07T06:57:01;100066.68;;;-1.23;97.65
76753;BME280;65687;51.308;16.916;2023-12-07T07:02:04;100075.27;;;-1.20;97.62
76753;BME280;65687;51.308;16.916;2023-12-07T07:07:05;100074.14;;;-1.17;98.04
76753;BME280;65687;51.308;16.916;2023-12-07T07:12:07;100075.89;;;-1.14;98.21
76753;BME280;65687;51.308;16.916;2023-12-07T07:17:09;100066.09;;;-1.14;98.10
76753;BME280;65687;51.308;16.916;2023-12-07T07:22:10;100072.59;;;-1.14;98.45
76753;BME280;65687;51.308;16.916;2023-12-07T07:27:12;100079.30;;;-1.11;98.61
76753;BME280;65687;51.308;16.916;2023-12-07T07:32:14;100079.36;;;-1.07;98.78
76753;BME280;65687;51.308;16.916;2023-12-07T07:37:15;100083.05;;;-1.03;98.87
76753;BME280;65687;51.308;16.916;2023-12-07T07:42:17;100083.66;;;-0.97;98.73
76753;BME280;65687;51.308;16.916;2023-12-07T07:47:19;100085.22;;;-0.94;98.83
76753;BME280;65687;51.308;16.916;2023-12-07T07:52:20;100091.34;;;-0.97;98.76
76753;BME280;65687;51.308;16.916;2023-12-07T07:57:22;100101.21;;;-0.96;99.49
76753;BME280;65687;51.308;16.916;2023-12-07T08:02:23;100103.61;;;-0.91;99.24
76753;BME280;65687;51.308;16.916;2023-12-07T08:07:25;100108.48;;;-0.88;99.27
76753;BME280;65687;51.308;16.916;2023-12-07T08:12:27;100108.48;;;-0.85;99.13
76753;BME280;65687;51.308;16.916;2023-12-07T08:17:28;100109.34;;;-0.86;99.34
76753;BME280;65687;51.308;16.916;2023-12-07T08:22:31;100112.24;;;-0.88;99.27
76753;BME280;65687;51.308;16.916;2023-12-07T08:27:33;100110.75;;;-0.88;99.48
76753;BME280;65687;51.308;16.916;2023-12-07T08:32:35;100113.55;;;-0.91;99.66
76753;BME280;65687;51.308;16.916;2023-12-07T08:37:38;100117.96;;;-0.93;99.92
76753;BME280;65687;51.308;16.916;2023-12-07T08:42:46;100118.05;;;-0.94;100.00
76753;BME280;65687;51.308;16.916;2023-12-07T08:47:48;100117.38;;;-0.92;100.00
76753;BME280;65687;51.308;16.916;2023-12-07T08:52:50;100120.05;;;-0.92;100.00
76753;BME280;65687;51.308;16.916;2023-12-07T08:57:53;100119.41;;;-0.89;100.00
76753;BME280;65687;51.308;16.916;2023-12-07T09:02:55;100123.51;;;-0.87;100.00
76753;BME280;65687;51.308;16.916;2023-12-07T09:07:56;100124.45;;;-0.86;100.00
76753;BME280;65687;51.308;16.916;2023-12-07T09:12:58;100129.95;;;-0.81;100.00
76753;BME280;65687;51.308;16.916;2023-12-07T09:18:00;100132.83;;;-0.77;100.00
76753;BME280;65687;51.308;16.916;2023-12-07T09:23:02;100132.19;;;-0.76;100.00
76753;BME280;65687;51.308;16.916;2023-12-07T09:28:04;100136.89;;;-0.72;100.00
76753;BME280;65687;51.308;16.916;2023-12-07T09:33:06;100138.56;;;-0.69;100.00
76753;BME280;65687;51.308;16.916;2023-12-07T09:38:08;100133.70;;;-0.67;100.00
76753;BME280;65687;51.308;16.916;2023-12-07T09:43:11;100130.63;;;-0.67;100.00
76753;BME280;65687;51.308;16.916;2023-12-07T09:48:15;100129.11;;;-0.65;100.00
76753;BME280;65687;51.308;16.916;2023-12-07T09:53:18;100127.35;;;-0.60;100.00
76753;BME280;65687;51.308;16.916;2023-12-07T09:58:19;100124.46;;;-0.56;100.00
76753;BME280;65687;51.308;16.916;2023-12-07T10:03:22;100122.50;;;-0.58;100.00
76753;BME280;65687;51.308;16.916;2023-12-07T10:13:30;100116.19;;;-0.53;100.00
76753;BME280;65687;51.308;16.916;2023-12-07T10:18:32;100117.14;;;-0.52;100.00
76753;BME280;65687;51.308;16.916;2023-12-07T10:23:34;100118.20;;;-0.48;100.00
76753;BME280;65687;51.308;16.916;2023-12-07T10:28:36;100119.65;;;-0.46;100.00
76753;BME280;65687;51.308;16.916;2023-12-07T10:33:40;100121.18;;;-0.43;100.00
76753;BME280;65687;51.308;16.916;2023-12-07T10:38:44;100130.05;;;-0.39;100.00
76753;BME280;65687;51.308;16.916;2023-12-07T10:44:13;100127.09;;;-0.34;100.00
76753;BME280;65687;51.308;16.916;2023-12-07T10:49:19;100124.85;;;-0.32;100.00
76753;BME280;65687;51.308;16.916;2023-12-07T10:54:25;100127.26;;;-0.31;100.00
76753;BME280;65687;51.308;16.916;2023-12-07T10:59:31;100125.95;;;-0.29;100.00
76753;BME280;65687;51.308;16.916;2023-12-07T11:04:35;100123.87;;;-0.31;100.00
76753;BME280;65687;51.308;16.916;2023-12-07T11:09:39;100125.17;;;-0.33;100.00
76753;BME280;65687;51.308;16.916;2023-12-07T11:14:43;100124.10;;;-0.29;100.00
76753;BME280;65687;51.308;16.916;2023-12-07T11:19:46;100118.93;;;-0.25;100.00
76753;BME280;65687;51.308;16.916;2023-12-07T11:24:56;100117.65;;;-0.21;100.00
76753;BME280;65687;51.308;16.916;2023-12-07T11:30:04;100116.02;;;-0.20;100.00
76753;BME280;65687;51.308;16.916;2023-12-07T11:35:11;100118.65;;;-0.22;100.00
76753;BME280;65687;51.308;16.916;2023-12-07T11:40:13;100115.59;;;-0.21;99.99
76753;BME280;65687;51.308;16.916;2023-12-07T11:45:15;100114.80;;;-0.24;100.00
76753;BME280;65687;51.308;16.916;2023-12-07T11:50:56;100116.54;;;-0.23;100.00
76753;BME280;65687;51.308;16.916;2023-12-07T11:56:00;100112.60;;;-0.21;100.00
76753;BME280;65687;51.308;16.916;2023-12-07T12:01:02;100114.52;;;-0.20;100.00
76753;BME280;65687;51.308;16.916;2023-12-07T12:06:06;100115.63;;;-0.18;100.00
76753;BME280;65687;51.308;16.916;2023-12-07T12:11:09;100112.96;;;-0.20;100.00
76753;BME280;65687;51.308;16.916;2023-12-07T12:16:12;100111.67;;;-0.19;100.00
76753;BME280;65687;51.308;16.916;2023-12-07T12:21:16;100111.92;;;-0.17;100.00
76753;BME280;65687;51.308;16.916;2023-12-07T12:26:17;100104.20;;;-0.18;100.00
76753;BME280;65687;51.308;16.916;2023-12-07T12:31:20;100103.64;;;-0.20;100.00
76753;BME280;65687;51.308;16.916;2023-12-07T12:36:22;100108.60;;;-0.16;100.00
76753;BME280;65687;51.308;16.916;2023-12-07T12:41:29;100110.77;;;-0.10;100.00
76753;BME280;65687;51.308;16.916;2023-12-07T12:46:34;100101.85;;;-0.08;100.00
76753;BME280;65687;51.308;16.916;2023-12-07T12:51:37;100104.16;;;-0.06;100.00
76753;BME280;65687;51.308;16.916;2023-12-07T12:56:40;100110.10;;;-0.05;100.00
76753;BME280;65687;51.308;16.916;2023-12-07T13:01:42;100112.23;;;-0.10;100.00
76753;BME280;65687;51.308;16.916;2023-12-07T13:06:44;100119.20;;;-0.08;100.00
76753;BME280;65687;51.308;16.916;2023-12-07T13:11:46;100119.45;;;-0.08;100.00
76753;BME280;65687;51.308;16.916;2023-12-07T13:16:48;100123.33;;;-0.05;100.00
76753;BME280;65687;51.308;16.916;2023-12-07T13:21:50;100125.92;;;-0.06;100.00
76753;BME280;65687;51.308;16.916;2023-12-07T13:26:52;100122.62;;;-0.05;100.00
76753;BME280;65687;51.308;16.916;2023-12-07T13:31:53;100124.79;;;-0.03;100.00
76753;BME280;65687;51.308;16.916;2023-12-07T13:36:55;100122.26;;;-0.05;100.00
76753;BME280;65687;51.308;16.916;2023-12-07T13:41:58;100122.61;;;-0.03;100.00
76753;BME280;65687;51.308;16.916;2023-12-07T13:47:00;100120.52;;;0.08;100.00
76753;BME280;65687;51.308;16.916;2023-12-07T13:52:02;100120.80;;;0.21;99.94
76753;BME280;65687;51.308;16.916;2023-12-07T13:57:04;100124.65;;;0.37;99.96
76753;BME280;65687;51.308;16.916;2023-12-07T14:02:06;100129.74;;;0.58;99.84
76753;BME280;65687;51.308;16.916;2023-12-07T14:07:13;100130.95;;;0.66;99.25
76753;BME280;65687;51.308;16.916;2023-12-07T14:12:15;100133.02;;;0.60;98.87
76753;BME280;65687;51.308;16.916;2023-12-07T14:17:18;100136.92;;;0.58;98.76
76753;BME280;65687;51.308;16.916;2023-12-07T14:22:20;100145.66;;;0.62;98.71
76753;BME280;65687;51.308;16.916;2023-12-07T14:27:22;100137.88;;;0.64;98.17
76753;BME280;65687;51.308;16.916;2023-12-07T14:32:24;100140.48;;;0.54;98.09
76753;BME280;65687;51.308;16.916;2023-12-07T14:37:26;100143.34;;;0.53;98.54
76753;BME280;65687;51.308;16.916;2023-12-07T14:42:30;100155.02;;;0.56;98.22
76753;BME280;65687;51.308;16.916;2023-12-07T14:47:32;100164.83;;;0.56;98.03
76753;BME280;65687;51.308;16.916;2023-12-07T14:52:34;100156.45;;;0.54;97.92
76753;BME280;65687;51.308;16.916;2023-12-07T14:57:36;100159.94;;;0.44;98.02
76753;BME280;65687;51.308;16.916;2023-12-07T15:02:37;100159.71;;;0.40;98.45
76753;BME280;65687;51.308;16.916;2023-12-07T15:07:39;100167.52;;;0.43;98.49
76753;BME280;65687;51.308;16.916;2023-12-07T15:12:41;100164.56;;;0.58;98.34
76753;BME280;65687;51.308;16.916;2023-12-07T15:17:44;100165.59;;;0.60;98.10
76753;BME280;65687;51.308;16.916;2023-12-07T15:22:47;100160.33;;;0.53;97.90
76753;BME280;65687;51.308;16.916;2023-12-07T15:27:49;100154.70;;;0.46;97.90
76753;BME280;65687;51.308;16.916;2023-12-07T15:32:51;100149.17;;;0.41;97.83
76753;BME280;65687;51.308;16.916;2023-12-07T15:37:52;100150.52;;;0.46;97.82
76753;BME280;65687;51.308;16.916;2023-12-07T15:42:55;100148.27;;;0.51;97.59
76753;BME280;65687;51.308;16.916;2023-12-07T15:47:57;100148.04;;;0.44;97.50
76753;BME280;65687;51.308;16.916;2023-12-07T15:52:59;100155.39;;;0.43;97.50
76753;BME280;65687;51.308;16.916;2023-12-07T15:58:00;100154.45;;;0.35;97.86
76753;BME280;65687;51.308;16.916;2023-12-07T16:03:02;100157.02;;;0.35;98.00
76753;BME280;65687;51.308;16.916;2023-12-07T16:08:04;100152.98;;;0.27;97.52
76753;BME280;65687;51.308;16.916;2023-12-07T16:13:08;100154.39;;;0.13;97.82
76753;BME280;65687;51.308;16.916;2023-12-07T16:18:12;100156.88;;;0.14;98.18
76753;BME280;65687;51.308;16.916;2023-12-07T16:23:14;100156.05;;;0.22;98.07
76753;BME280;65687;51.308;16.916;2023-12-07T16:28:15;100156.22;;;0.26;97.84
76753;BME280;65687;51.308;16.916;2023-12-07T16:33:17;100162.14;;;0.32;97.27
76753;BME280;65687;51.308;16.916;2023-12-07T16:38:19;100163.74;;;0.30;97.54
76753;BME280;65687;51.308;16.916;2023-12-07T16:43:20;100167.17;;;0.29;97.18
76753;BME280;65687;51.308;16.916;2023-12-07T16:48:22;100177.55;;;0.19;97.22
76753;BME280;65687;51.308;16.916;2023-12-07T16:53:24;100178.45;;;0.11;97.18
76753;BME280;65687;51.308;16.916;2023-12-07T16:58:26;100175.45;;;0.02;97.18
76753;BME280;65687;51.308;16.916;2023-12-07T17:03:27;100183.86;;;-0.00;97.80
76753;BME280;65687;51.308;16.916;2023-12-07T17:08:29;100185.27;;;0.07;97.82
76753;BME280;65687;51.308;16.916;2023-12-07T17:13:31;100184.66;;;0.03;97.61
76753;BME280;65687;51.308;16.916;2023-12-07T17:18:32;100178.38;;;-0.02;97.57
76753;BME280;65687;51.308;16.916;2023-12-07T17:23:34;100174.35;;;-0.13;97.25
76753;BME280;65687;51.308;16.916;2023-12-07T17:28:36;100171.35;;;-0.24;97.52
76753;BME280;65687;51.308;16.916;2023-12-07T17:33:37;100173.13;;;-0.32;98.18
76753;BME280;65687;51.308;16.916;2023-12-07T17:38:39;100174.20;;;-0.33;98.09
76753;BME280;65687;51.308;16.916;2023-12-07T17:43:42;100184.54;;;-0.31;98.22
76753;BME280;65687;51.308;16.916;2023-12-07T17:48:43;100180.08;;;-0.22;98.39
76753;BME280;65687;51.308;16.916;2023-12-07T17:53:46;100177.40;;;-0.16;98.24
76753;BME280;65687;51.308;16.916;2023-12-07T17:58:47;100186.36;;;-0.24;97.91
76753;BME280;65687;51.308;16.916;2023-12-07T18:03:49;100174.06;;;-0.25;98.19
76753;BME280;65687;51.308;16.916;2023-12-07T18:08:51;100173.07;;;-0.19;98.33
76753;BME280;65687;51.308;16.916;2023-12-07T18:13:53;100173.36;;;-0.28;97.93
76753;BME280;65687;51.308;16.916;2023-12-07T18:18:55;100174.72;;;-0.31;98.17
76753;BME280;65687;51.308;16.916;2023-12-07T18:23:57;100173.38;;;-0.25;98.75
76753;BME280;65687;51.308;16.916;2023-12-07T18:28:58;100174.50;;;-0.21;98.36
76753;BME280;65687;51.308;16.916;2023-12-07T18:34:00;100176.41;;;-0.26;98.36
76753;BME280;65687;51.308;16.916;2023-12-07T18:39:02;100189.44;;;-0.23;98.39
76753;BME280;65687;51.308;16.916;2023-12-07T18:44:03;100193.32;;;-0.22;98.42
76753;BME280;65687;51.308;16.916;2023-12-07T18:49:05;100194.39;;;-0.23;98.36
76753;BME280;65687;51.308;16.916;2023-12-07T18:54:06;100189.24;;;-0.23;98.15
76753;BME280;65687;51.308;16.916;2023-12-07T18:59:08;100187.63;;;-0.23;98.49
76753;BME280;65687;51.308;16.916;2023-12-07T19:04:10;100193.81;;;-0.21;98.45
76753;BME280;65687;51.308;16.916;2023-12-07T19:09:12;100194.16;;;-0.19;98.42
76753;BME280;65687;51.308;16.916;2023-12-07T19:14:15;100191.04;;;-0.22;98.57
76753;BME280;65687;51.308;16.916;2023-12-07T19:19:17;100197.45;;;-0.15;98.54
76753;BME280;65687;51.308;16.916;2023-12-07T19:24:19;100211.08;;;-0.00;98.52
76753;BME280;65687;51.308;16.916;2023-12-07T19:29:20;100219.05;;;0.06;97.94
76753;BME280;65687;51.308;16.916;2023-12-07T19:34:22;100222.63;;;0.07;98.18
76753;BME280;65687;51.308;16.916;2023-12-07T19:39:27;100222.55;;;0.04;97.86
76753;BME280;65687;51.308;16.916;2023-12-07T19:44:29;100222.54;;;0.13;98.42
76753;BME280;65687;51.308;16.916;2023-12-07T19:49:31;100227.27;;;0.27;97.92
76753;BME280;65687;51.308;16.916;2023-12-07T19:54:33;100221.92;;;0.39;97.34
76753;BME280;65687;51.308;16.916;2023-12-07T19:59:34;100217.32;;;0.30;96.86
76753;BME280;65687;51.308;16.916;2023-12-07T20:04:36;100208.20;;;0.14;97.41
76753;BME280;65687;51.308;16.916;2023-12-07T20:09:38;100221.52;;;0.12;97.23
76753;BME280;65687;51.308;16.916;2023-12-07T20:14:39;100213.47;;;0.24;97.64
76753;BME280;65687;51.308;16.916;2023-12-07T20:19:41;100192.45;;;0.15;97.14
76753;BME280;65687;51.308;16.916;2023-12-07T20:24:43;100186.53;;;0.12;97.63
76753;BME280;65687;51.308;16.916;2023-12-07T20:29:45;100182.30;;;0.13;97.17
76753;BME280;65687;51.308;16.916;2023-12-07T20:34:47;100175.48;;;0.08;97.25
76753;BME280;65687;51.308;16.916;2023-12-07T20:39:50;100160.53;;;0.04;97.20
76753;BME280;65687;51.308;16.916;2023-12-07T20:44:52;100155.48;;;0.04;97.50
76753;BME280;65687;51.308;16.916;2023-12-07T20:49:53;100142.89;;;0.08;97.51
76753;BME280;65687;51.308;16.916;2023-12-07T20:54:55;100137.17;;;0.16;97.30
76753;BME280;65687;51.308;16.916;2023-12-07T20:59:57;100139.55;;;0.19;97.22
76753;BME280;65687;51.308;16.916;2023-12-07T21:04:58;100139.09;;;0.22;96.92
76753;BME280;65687;51.308;16.916;2023-12-07T21:10:00;100125.08;;;0.20;96.90
76753;BME280;65687;51.308;16.916;2023-12-07T21:15:01;100119.19;;;0.09;96.55
76753;BME280;65687;51.308;16.916;2023-12-07T21:20:06;100121.50;;;0.08;97.40
76753;BME280;65687;51.308;16.916;2023-12-07T21:25:08;100127.91;;;0.08;96.81
76753;BME280;65687;51.308;16.916;2023-12-07T21:30:10;100125.93;;;0.09;96.64
76753;BME280;65687;51.308;16.916;2023-12-07T21:35:12;100124.91;;;0.06;96.46
76753;BME280;65687;51.308;16.916;2023-12-07T21:40:14;100121.55;;;0.01;97.11
76753;BME280;65687;51.308;16.916;2023-12-07T21:45:15;100124.52;;;-0.01;96.95
76753;BME280;65687;51.308;16.916;2023-12-07T21:50:17;100115.38;;;0.07;97.22
76753;BME280;65687;51.308;16.916;2023-12-07T21:55:18;100106.66;;;0.06;97.14
76753;BME280;65687;51.308;16.916;2023-12-07T22:00:20;100111.39;;;0.05;97.15
76753;BME280;65687;51.308;16.916;2023-12-07T22:05:22;100108.10;;;0.07;97.27
76753;BME280;65687;51.308;16.916;2023-12-07T22:10:23;100100.05;;;0.11;97.28
76753;BME280;65687;51.308;16.916;2023-12-07T22:15:25;100095.80;;;0.10;97.21
76753;BME280;65687;51.308;16.916;2023-12-07T22:20:27;100094.88;;;0.03;97.50
76753;BME280;65687;51.308;16.916;2023-12-07T22:25:28;100087.95;;;0.02;97.70
76753;BME280;65687;51.308;16.916;2023-12-07T22:30:30;100078.69;;;0.04;97.52
76753;BME280;65687;51.308;16.916;2023-12-07T22:35:31;100071.77;;;0.07;97.96
76753;BME280;65687;51.308;16.916;2023-12-07T22:40:33;100073.72;;;0.16;97.80
76753;BME280;65687;51.308;16.916;2023-12-07T22:45:34;100076.34;;;0.13;97.76
76753;BME280;65687;51.308;16.916;2023-12-07T22:50:36;100082.21;;;0.12;97.69
76753;BME280;65687;51.308;16.916;2023-12-07T22:55:38;100083.91;;;0.18;97.66
76753;BME280;65687;51.308;16.916;2023-12-07T23:00:39;100085.23;;;0.18;97.77
76753;BME280;65687;51.308;16.916;2023-12-07T23:05:42;100080.25;;;0.17;97.72
76753;BME280;65687;51.308;16.916;2023-12-07T23:10:43;100079.03;;;0.19;97.64
76753;BME280;65687;51.308;16.916;2023-12-07T23:15:45;100078.92;;;0.21;97.74
76753;BME280;65687;51.308;16.916;2023-12-07T23:20:46;100069.77;;;0.15;97.72
76753;BME280;65687;51.308;16.916;2023-12-07T23:25:48;100072.83;;;0.11;97.77
76753;BME280;65687;51.308;16.916;2023-12-07T23:30:49;100074.09;;;0.15;98.09
76753;BME280;65687;51.308;16.916;2023-12-07T23:35:51;100068.00;;;0.28;98.03
76753;BME280;65687;51.308;16.916;2023-12-07T23:40:53;100070.95;;;0.32;97.68
76753;BME280;65687;51.308;16.916;2023-12-07T23:45:54;100069.27;;;0.21;97.26
76753;BME280;65687;51.308;16.916;2023-12-07T23:50:56;100067.52;;;0.11;97.83
76753;BME280;65687;51.308;16.916;2023-12-07T23:55:57;100063.79;;;0.17;97.94
